createdAt,value
2022-08-14T00:00:21.623Z,2.00
2022-08-14T00:06:14.101Z,1.85
2022-08-14T00:12:23.932Z,2.03
2022-08-14T00:18:31.067Z,1.70
2022-08-14T00:24:28.873Z,2.05
2022-08-14T00:30:17.727Z,2.17
2022-08-14T00:36:35.993Z,1.80
2022-08-14T00:42:21.660Z,1.95
2022-08-14T00:48:34.543Z,1.83
2022-08-14T00:54:24.194Z,1.80
2022-08-14T01:00:34.494Z,1.70
2022-08-14T01:06:21.718Z,2.00
2022-08-14T01:12:26.473Z,2.22
2022-08-14T01:18:33.615Z,2.50
2022-08-14T01:24:28.940Z,2.08
2022-08-14T01:30:26.477Z,1.95
2022-08-14T01:36:21.039Z,2.35
2022-08-14T01:42:10.033Z,2.88
2022-08-14T01:48:20.671Z,3.30
2022-08-14T01:54:14.359Z,3.20
2022-08-14T02:00:03.124Z,2.63
2022-08-14T02:05:52.008Z,3.22
2022-08-14T02:11:39.301Z,2.53
2022-08-14T02:17:28.192Z,2.83
2022-08-14T02:23:23.961Z,3.40
2022-08-14T02:29:24.055Z,3.78
2022-08-14T02:35:32.886Z,5.00
2022-08-14T02:41:20.281Z,4.55
2022-08-14T02:47:14.905Z,5.80
2022-08-14T02:53:06.208Z,6.25
2022-08-14T02:58:57.228Z,6.57
2022-08-14T03:04:47.775Z,11.27
2022-08-14T03:10:34.677Z,11.68
2022-08-14T03:16:27.013Z,12.00
2022-08-14T03:22:17.872Z,13.88
2022-08-14T03:28:07.181Z,14.38
2022-08-14T03:33:54.281Z,14.82
2022-08-14T03:39:41.799Z,14.95
2022-08-14T03:45:35.109Z,14.38
2022-08-14T03:51:28.745Z,13.90
2022-08-14T03:57:16.790Z,12.50
2022-08-14T04:03:06.702Z,12.18
2022-08-14T04:08:53.636Z,12.57
2022-08-14T04:14:45.655Z,12.38
2022-08-14T04:20:32.733Z,11.57
2022-08-14T04:26:42.512Z,11.43
2022-08-14T04:32:58.455Z,11.85
2022-08-14T04:38:55.706Z,12.00
2022-08-14T04:44:48.837Z,11.30
2022-08-14T04:50:43.972Z,11.73
2022-08-14T04:56:34.323Z,11.52
2022-08-14T05:02:24.545Z,10.82
2022-08-14T05:08:32.229Z,11.25
2022-08-14T05:14:45.583Z,10.10
2022-08-14T05:21:04.966Z,10.98
2022-08-14T05:26:42.363Z,11.00
2022-08-14T05:32:29.320Z,10.57
2022-08-14T05:38:31.059Z,9.98
2022-08-14T05:44:18.650Z,8.48
2022-08-14T05:50:07.368Z,8.82
2022-08-14T05:56:04.761Z,9.25
2022-08-14T06:01:51.771Z,8.25
2022-08-14T06:07:39.158Z,9.13
2022-08-14T06:13:31.555Z,8.18
2022-08-14T06:19:30.621Z,9.15
2022-08-14T06:25:18.230Z,8.95
2022-08-14T06:31:06.420Z,8.45
2022-08-14T06:36:59.038Z,8.73
2022-08-14T06:42:47.270Z,8.05
2022-08-14T06:48:36.596Z,9.02
2022-08-14T06:54:23.287Z,8.43
2022-08-14T07:00:26.933Z,8.13
2022-08-14T07:06:45.401Z,7.18
2022-08-14T07:12:56.364Z,7.18
2022-08-14T07:18:34.737Z,6.50
2022-08-14T07:24:26.425Z,5.90
2022-08-14T07:30:34.183Z,5.47
2022-08-14T07:36:58.173Z,4.82
2022-08-14T07:42:47.891Z,4.68
2022-08-14T07:48:40.254Z,4.72
2022-08-14T07:54:30.059Z,4.07
2022-08-14T08:00:31.618Z,3.60
2022-08-14T08:06:22.407Z,2.90
2022-08-14T08:12:14.314Z,3.17
2022-08-14T08:18:09.258Z,2.77
2022-08-14T08:24:20.750Z,2.70
2022-08-14T08:30:10.004Z,2.63
2022-08-14T08:36:04.220Z,2.45
2022-08-14T08:41:53.857Z,2.33
2022-08-14T08:47:41.407Z,1.88
2022-08-14T08:53:36.464Z,1.95
2022-08-14T08:59:34.387Z,1.75
2022-08-14T09:05:24.407Z,2.83
2022-08-14T09:11:21.479Z,2.13
2022-08-14T09:17:09.051Z,2.05
2022-08-14T09:22:56.420Z,1.90
2022-08-14T09:28:43.274Z,2.15
2022-08-14T09:34:37.243Z,1.90
2022-08-14T09:40:40.778Z,2.20
2022-08-14T09:46:28.831Z,1.55
2022-08-14T09:52:33.069Z,1.67
2022-08-14T09:58:23.057Z,1.60
2022-08-14T10:04:33.003Z,1.23
2022-08-14T10:10:41.771Z,1.73
2022-08-14T10:16:48.958Z,1.40
2022-08-14T10:23:13.090Z,1.23
2022-08-14T10:29:18.984Z,1.10
2022-08-14T10:35:14.629Z,1.70
2022-08-14T10:41:16.667Z,1.35
2022-08-14T10:47:40.603Z,1.45
2022-08-14T11:17:21.835Z,0.90
2022-08-14T11:30:59.950Z,0.90
2022-08-14T11:37:09.618Z,0.57
2022-08-14T11:43:22.808Z,0.90
2022-08-14T11:49:34.148Z,1.00
2022-08-14T11:55:26.218Z,0.60
2022-08-14T12:01:41.395Z,0.80
2022-08-14T12:07:34.869Z,1.00
2022-08-14T12:13:56.107Z,1.17
2022-08-14T12:20:04.966Z,0.73
2022-08-14T12:26:39.000Z,0.95
2022-08-14T12:32:40.759Z,0.90
2022-08-14T12:39:03.353Z,0.90
2022-08-14T12:44:58.397Z,1.10
2022-08-14T12:50:52.366Z,0.73
2022-08-14T12:56:42.636Z,0.80
2022-08-14T13:02:38.312Z,0.93
2022-08-14T13:08:33.199Z,0.80
2022-08-14T13:14:48.079Z,0.95
2022-08-14T13:20:34.952Z,0.98
2022-08-14T13:27:15.610Z,1.08
2022-08-14T13:33:02.662Z,1.17
2022-08-14T13:38:53.753Z,1.95
2022-08-14T13:44:56.194Z,1.90
2022-08-14T13:50:48.802Z,1.50
2022-08-14T13:56:41.992Z,2.80
2022-08-14T14:03:07.066Z,2.80
2022-08-14T14:08:59.176Z,2.13
2022-08-14T14:14:59.763Z,2.20
2022-08-14T14:20:55.055Z,2.80
2022-08-14T14:26:46.392Z,2.35
2022-08-14T14:32:34.116Z,3.00
2022-08-14T14:38:27.591Z,2.28
2022-08-14T14:44:23.489Z,2.35
2022-08-14T14:50:17.931Z,1.70
2022-08-14T14:56:50.109Z,1.92
2022-08-14T15:02:28.164Z,1.20
2022-08-14T15:08:16.940Z,1.30
2022-08-14T15:15:08.149Z,1.10
2022-08-14T15:20:30.655Z,1.20
2022-08-14T15:26:27.702Z,0.90
2022-08-14T15:32:23.032Z,1.00
2022-08-14T15:38:10.301Z,1.15
2022-08-14T15:44:03.642Z,0.82
2022-08-14T15:49:53.611Z,1.17
2022-08-14T15:55:45.845Z,1.15
2022-08-14T16:01:53.535Z,1.10
2022-08-14T16:07:41.158Z,1.15
2022-08-14T16:13:49.106Z,1.00
2022-08-14T16:19:43.999Z,1.00
2022-08-14T16:25:36.244Z,0.88
2022-08-14T16:31:24.729Z,1.02
2022-08-14T16:37:59.710Z,1.08
2022-08-14T16:44:21.433Z,1.20
2022-08-14T16:50:43.007Z,1.10
2022-08-14T16:56:30.949Z,1.30
2022-08-14T17:02:43.840Z,1.33
2022-08-14T17:08:46.570Z,1.40
2022-08-14T17:21:02.120Z,1.42
2022-08-14T17:26:55.028Z,1.40
2022-08-14T17:32:56.936Z,1.20
2022-08-14T17:39:07.247Z,1.48
2022-08-14T17:45:01.331Z,1.45
2022-08-14T17:50:58.837Z,1.55
2022-08-14T17:57:01.425Z,1.38
2022-08-14T18:08:48.629Z,1.40
2022-08-14T18:14:52.588Z,1.67
2022-08-14T18:21:40.516Z,2.10
2022-08-14T18:27:10.285Z,2.15
2022-08-14T18:33:15.666Z,2.58
2022-08-14T18:40:03.472Z,2.20
2022-08-14T18:46:04.485Z,1.88
2022-08-14T18:52:18.629Z,2.00
2022-08-14T18:58:25.950Z,2.13
2022-08-14T19:04:36.173Z,2.22
2022-08-14T19:10:31.833Z,3.78
2022-08-14T19:16:43.136Z,3.50
2022-08-14T19:22:42.485Z,3.42
2022-08-14T19:28:50.198Z,3.53
2022-08-14T19:34:52.290Z,3.40
2022-08-14T19:40:42.822Z,4.18
2022-08-14T19:46:39.566Z,3.78
2022-08-14T19:52:42.394Z,3.22
2022-08-14T19:58:54.482Z,2.75
2022-08-14T20:04:57.537Z,3.72
2022-08-14T20:11:07.841Z,3.55
2022-08-14T20:17:05.581Z,2.92
2022-08-14T20:22:55.537Z,2.30
2022-08-14T20:28:51.270Z,2.30
2022-08-14T20:34:39.762Z,6.47
2022-08-14T20:40:57.907Z,2.40
2022-08-14T20:46:45.004Z,1.80
2022-08-14T20:53:55.035Z,1.83
2022-08-14T21:07:25.489Z,1.45
2022-08-14T21:21:54.704Z,2.08
2022-08-14T21:27:57.078Z,1.67
2022-08-14T21:34:27.310Z,1.50
2022-08-14T22:32:07.540Z,1.40
2022-08-14T22:40:17.186Z,2.30
2022-08-14T22:52:33.145Z,1.83
2022-08-14T23:13:40.138Z,1.65
2022-08-14T23:19:56.329Z,1.65
2022-08-14T23:26:49.168Z,1.70
2022-08-14T23:32:53.862Z,1.90
2022-08-14T23:38:58.712Z,1.20
2022-08-14T23:44:47.024Z,1.42
2022-08-14T23:50:38.639Z,1.92
2022-08-14T23:56:32.054Z,2.03
